Time;durP1;ratioP1;P1;durP2;ratioP2;P2;SDS_P1;SDS_P2;PMS_P1;PMS_P2;Temp;Humidity;BMP_temperature;BMP_pressure;BME280_temperature;BME280_humidity;BME280_pressure;Samples;Min_cycle;Max_cycle;Signal;HPM_P1;HPM_P2
2023/09/01 00:01:57;;;;;;;15.52;6.53;;;;;;;10.23;100.00;100929.44;10448547;28;20051;-78
2023/09/01 00:06:58;;;;;;;17.88;9.05;;;;;;;10.20;100.00;100931.00;10412282;28;20786;-78
2023/09/01 00:11:58;;;;;;;15.77;6.70;;;;;;;10.28;100.00;100940.13;10447339;28;20044;-77
2023/09/01 00:16:59;;;;;;;13.60;8.18;;;;;;;10.34;100.00;100919.50;10430974;28;20125;-77
2023/09/01 00:22:00;;;;;;;15.68;7.50;;;;;;;10.43;100.00;100916.47;10450164;28;20028;-77
2023/09/01 00:27:00;;;;;;;21.85;7.50;;;;;;;10.57;100.00;100910.19;10448859;28;20068;-77
2023/09/01 00:32:01;;;;;;;16.83;8.73;;;;;;;10.75;100.00;100911.00;10431705;28;20037;-77
2023/09/01 00:37:03;;;;;;;16.70;8.70;;;;;;;10.88;100.00;100908.16;10445895;28;20037;-77
2023/09/01 00:42:03;;;;;;;14.47;7.00;;;;;;;10.98;100.00;100897.28;10429058;28;20045;-78
2023/09/01 00:47:04;;;;;;;19.65;7.03;;;;;;;11.00;100.00;100885.16;10446835;28;20469;-77
2023/09/01 00:52:05;;;;;;;16.00;8.65;;;;;;;11.01;100.00;100886.94;10446322;28;20048;-78
2023/09/01 00:57:05;;;;;;;13.23;7.72;;;;;;;11.01;100.00;100897.44;10446573;28;20072;-78
2023/09/01 01:02:06;;;;;;;14.32;7.35;;;;;;;11.03;100.00;100884.38;10446258;28;20091;-78
2023/09/01 01:07:13;;;;;;;14.70;8.13;;;;;;;11.02;100.00;100885.22;10418096;28;20377;-78
2023/09/01 01:12:14;;;;;;;16.08;8.27;;;;;;;10.98;100.00;100876.34;10445585;28;20127;-78
2023/09/01 01:17:18;;;;;;;17.15;8.02;;;;;;;10.94;100.00;100895.34;10445592;28;20189;-77
2023/09/01 01:22:20;;;;;;;15.45;9.68;;;;;;;11.04;100.00;100877.44;10445166;28;20492;-77
2023/09/01 01:27:21;;;;;;;14.15;8.60;;;;;;;11.10;100.00;100878.59;10444976;28;20060;-77
2023/09/01 01:32:21;;;;;;;18.17;7.95;;;;;;;11.16;100.00;100889.34;10447163;28;20480;-77
2023/09/01 01:37:46;;;;;;;17.98;7.35;;;;;;;11.25;100.00;100901.09;10442142;28;20049;-77
2023/09/01 01:42:48;;;;;;;16.42;8.15;;;;;;;11.31;100.00;100899.66;10443282;28;20035;-78
2023/09/01 01:47:50;;;;;;;24.50;10.07;;;;;;;11.37;100.00;100882.41;10477376;28;20032;-78
2023/09/01 01:52:50;;;;;;;19.83;7.20;;;;;;;11.42;100.00;100883.50;10427713;28;20041;-78
2023/09/01 01:57:51;;;;;;;12.98;7.13;;;;;;;11.49;100.00;100876.81;10457052;28;20503;-78
2023/09/01 02:02:51;;;;;;;10.75;7.28;;;;;;;11.53;100.00;100883.97;10476368;28;20056;-78
2023/09/01 02:07:52;;;;;;;14.13;7.38;;;;;;;11.59;100.00;100868.50;10444469;28;20063;-78
2023/09/01 02:12:52;;;;;;;20.85;6.75;;;;;;;11.62;100.00;100873.88;10427579;28;20044;-78
2023/09/01 02:17:53;;;;;;;14.82;7.72;;;;;;;11.65;100.00;100878.38;10424824;28;20036;-77
2023/09/01 02:22:54;;;;;;;11.00;5.70;;;;;;;11.67;100.00;100874.09;10441175;28;20040;-78
2023/09/01 02:27:56;;;;;;;13.93;5.97;;;;;;;11.65;100.00;100863.53;10457048;28;20558;-77
2023/09/01 02:32:57;;;;;;;;;;;;;;;11.64;100.00;100860.88;10434539;28;20038;-77
2023/09/01 02:37:57;;;;;;;14.10;6.47;;;;;;;11.55;100.00;100858.72;10403855;28;20297;-77
2023/09/01 02:42:58;;;;;;;18.38;6.90;;;;;;;11.50;100.00;100855.00;10401495;28;20553;-77
2023/09/01 02:47:58;;;;;;;15.77;7.65;;;;;;;11.47;100.00;100871.50;10447791;28;20069;-77
2023/09/01 02:52:59;;;;;;;12.90;6.35;;;;;;;11.50;100.00;100863.78;10442874;28;20041;-78
2023/09/01 02:58:00;;;;;;;12.83;7.37;;;;;;;11.54;100.00;100863.09;10418421;28;20060;-77
2023/09/01 03:03:00;;;;;;;12.55;6.45;;;;;;;11.59;100.00;100861.56;10403566;28;20048;-77
2023/09/01 03:08:01;;;;;;;16.83;8.05;;;;;;;11.68;100.00;100862.78;10396925;28;20041;-78
2023/09/01 03:13:02;;;;;;;13.32;6.55;;;;;;;11.75;100.00;100868.34;10415837;28;20037;-77
2023/09/01 03:18:03;;;;;;;13.10;6.63;;;;;;;11.82;100.00;100868.59;10441788;28;20040;-77
2023/09/01 03:23:03;;;;;;;14.60;7.18;;;;;;;11.89;100.00;100878.53;10440610;28;20099;-77
2023/09/01 03:28:04;;;;;;;13.98;7.75;;;;;;;11.93;100.00;100880.44;10445109;28;20076;-77
2023/09/01 03:33:06;;;;;;;12.63;8.20;;;;;;;11.96;100.00;100851.72;10408755;28;20041;-77
2023/09/01 03:38:06;;;;;;;12.55;7.30;;;;;;;11.96;100.00;100854.34;10425986;28;20029;-77
2023/09/01 03:43:07;;;;;;;21.85;7.63;;;;;;;11.92;100.00;100855.06;10430353;28;20473;-77
2023/09/01 03:48:08;;;;;;;11.73;6.25;;;;;;;11.98;100.00;100862.31;10448586;28;20029;-77
2023/09/01 03:53:08;;;;;;;27.33;8.60;;;;;;;12.04;100.00;100855.59;10446063;28;20041;-77
2023/09/01 03:58:09;;;;;;;11.98;7.13;;;;;;;12.07;100.00;100849.59;10431196;28;20041;-77
2023/09/01 04:03:09;;;;;;;13.23;7.60;;;;;;;12.10;100.00;100857.59;10449992;28;20041;-77
2023/09/01 04:08:10;;;;;;;12.35;6.55;;;;;;;12.15;100.00;100847.28;10443352;28;20124;-77
2023/09/01 04:13:10;;;;;;;13.48;7.00;;;;;;;12.19;100.00;100854.44;10406454;28;20040;-77
2023/09/01 04:18:11;;;;;;;11.75;8.65;;;;;;;12.26;100.00;100848.59;10407705;28;20049;-77
2023/09/01 04:23:11;;;;;;;12.70;7.47;;;;;;;12.27;100.00;100845.16;10418107;28;20140;-77
2023/09/01 04:28:12;;;;;;;8.07;5.57;;;;;;;12.31;100.00;100831.31;10448020;28;20121;-77
2023/09/01 04:33:13;;;;;;;10.05;6.40;;;;;;;12.32;100.00;100832.22;10430072;28;20088;-78
2023/09/01 04:38:13;;;;;;;11.48;6.88;;;;;;;12.31;100.00;100826.06;10418961;28;20091;-77
2023/09/01 04:43:14;;;;;;;12.00;8.50;;;;;;;12.37;100.00;100828.06;10446436;28;20478;-76
2023/09/01 04:48:19;;;;;;;11.43;7.45;;;;;;;12.43;100.00;100832.63;10442751;28;20041;-77
2023/09/01 04:53:20;;;;;;;10.55;6.75;;;;;;;12.42;100.00;100838.72;10437506;28;20037;-77
2023/09/01 04:58:21;;;;;;;15.30;9.63;;;;;;;12.53;100.00;100842.66;10479003;28;20041;-77
2023/09/01 05:03:21;;;;;;;15.10;10.02;;;;;;;12.60;100.00;100846.44;10443919;28;20045;-77
2023/09/01 05:08:22;;;;;;;17.08;8.68;;;;;;;12.66;100.00;100840.53;10432737;28;20038;-77
2023/09/01 05:13:23;;;;;;;12.90;8.68;;;;;;;12.71;100.00;100842.50;10407134;28;20467;-77
2023/09/01 05:18:23;;;;;;;17.60;10.75;;;;;;;12.84;100.00;100835.97;10429537;28;21235;-77
2023/09/01 05:23:25;;;;;;;19.85;9.73;;;;;;;12.89;100.00;100841.41;10438268;28;20056;-77
2023/09/01 05:28:26;;;;;;;14.43;8.70;;;;;;;13.03;100.00;100832.31;10434701;28;20040;-76
2023/09/01 05:33:27;;;;;;;12.07;7.68;;;;;;;13.08;100.00;100821.97;10431785;28;20736;-77
2023/09/01 05:38:31;;;;;;;148.68;101.45;;;;;;;13.18;100.00;100824.09;10443661;28;20125;-75
2023/09/01 05:43:32;;;;;;;1999.90;999.90;;;;;;;13.23;100.00;100824.28;10431439;28;20159;-77
2023/09/01 05:48:34;;;;;;;1999.90;999.90;;;;;;;13.30;100.00;100836.78;10450525;28;20477;-75
2023/09/01 05:53:35;;;;;;;1999.90;999.90;;;;;;;13.44;100.00;100839.06;10451553;28;20041;-75
2023/09/01 05:58:36;;;;;;;1999.90;999.90;;;;;;;13.54;100.00;100854.31;10405682;28;20589;-77
2023/09/01 06:03:36;;;;;;;1999.90;999.90;;;;;;;13.53;100.00;100849.88;10404226;28;20052;-78
2023/09/01 06:08:37;;;;;;;1999.90;999.90;;;;;;;13.62;100.00;100846.69;10432153;28;20037;-77
2023/09/01 06:13:38;;;;;;;1999.90;999.90;;;;;;;13.71;100.00;100838.22;10441873;28;20051;-77
2023/09/01 06:18:38;;;;;;;1999.90;999.90;;;;;;;13.83;100.00;100848.25;10443300;28;20123;-77
2023/09/01 06:23:44;;;;;;;1999.90;999.90;;;;;;;14.01;100.00;100851.50;10464688;28;20037;-76
2023/09/01 06:28:45;;;;;;;1999.90;999.90;;;;;;;14.04;100.00;100862.13;10449373;28;20036;-77
2023/09/01 06:33:47;;;;;;;62.08;23.13;;;;;;;14.08;100.00;100861.41;10419434;28;20038;-77
2023/09/01 06:38:49;;;;;;;1999.90;999.90;;;;;;;14.24;100.00;100843.47;10421794;28;20048;-77
2023/09/01 06:43:49;;;;;;;14.13;6.33;;;;;;;14.30;100.00;100853.31;10436887;28;20042;-77
2023/09/01 06:48:50;;;;;;;1999.90;999.90;;;;;;;14.42;100.00;100851.06;10461681;28;20029;-76
2023/09/01 06:53:50;;;;;;;11.32;7.28;;;;;;;14.53;100.00;100833.88;10465791;28;20222;-76
2023/09/01 06:58:51;;;;;;;11.70;8.23;;;;;;;14.61;100.00;100818.28;10423124;28;20051;-77
2023/09/01 07:03:51;;;;;;;63.85;19.27;;;;;;;14.56;100.00;100825.16;10410962;28;20060;-76
2023/09/01 07:08:52;;;;;;;1526.10;772.97;;;;;;;14.55;100.00;100823.38;10427375;28;20111;-77
2023/09/01 07:13:52;;;;;;;14.32;11.70;;;;;;;14.47;100.00;100833.69;10409823;28;20045;-76
2023/09/01 07:18:53;;;;;;;24.40;15.50;;;;;;;14.50;100.00;100827.59;10449360;28;20119;-77
2023/09/01 07:23:53;;;;;;;15.77;13.68;;;;;;;14.66;100.00;100834.25;10426656;28;20505;-76
2023/09/01 07:28:54;;;;;;;17.73;15.93;;;;;;;14.67;100.00;100836.91;10436442;28;20051;-78
2023/09/01 07:33:55;;;;;;;28.23;20.40;;;;;;;14.61;100.00;100836.72;10440553;28;20033;-76
2023/09/01 07:38:55;;;;;;;30.20;26.60;;;;;;;14.58;100.00;100834.00;10439876;28;20033;-76
2023/09/01 07:43:56;;;;;;;22.10;16.40;;;;;;;14.58;100.00;100831.38;10425539;28;20512;-77
2023/09/01 07:48:56;;;;;;;23.38;15.52;;;;;;;14.56;100.00;100837.44;10396275;28;20045;-76
2023/09/01 07:53:57;;;;;;;20.95;14.65;;;;;;;14.53;100.00;100846.13;10459497;28;20045;-77
2023/09/01 07:58:57;;;;;;;22.85;15.50;;;;;;;14.59;100.00;100848.06;10454412;28;20041;-77
2023/09/01 08:04:02;;;;;;;22.25;14.60;;;;;;;14.70;100.00;100844.06;10425173;28;20550;-77
2023/09/01 08:09:04;;;;;;;24.67;16.00;;;;;;;14.77;100.00;100846.03;10400595;28;20060;-78
2023/09/01 08:14:04;;;;;;;21.58;11.23;;;;;;;14.80;100.00;100850.50;10401941;28;20509;-77
2023/09/01 08:19:05;;;;;;;17.00;10.82;;;;;;;14.81;100.00;100866.34;10419925;28;20094;-78
2023/09/01 08:24:06;;;;;;;23.63;12.25;;;;;;;14.72;100.00;100875.72;10426621;28;20041;-77
2023/09/01 08:29:07;;;;;;;16.60;10.27;;;;;;;14.70;100.00;100880.94;10411707;28;20033;-77
2023/09/01 08:34:10;;;;;;;18.88;10.60;;;;;;;14.68;100.00;100885.25;10447101;28;20292;-78
2023/09/01 08:39:11;;;;;;;12.57;8.57;;;;;;;14.64;100.00;100892.13;10434614;28;20049;-79
2023/09/01 08:44:12;;;;;;;12.60;7.78;;;;;;;14.67;100.00;100894.00;10406662;28;20056;-78
2023/09/01 08:49:12;;;;;;;13.13;8.10;;;;;;;14.63;100.00;100903.50;10456663;28;20044;-78
2023/09/01 08:54:14;;;;;;;13.20;7.38;;;;;;;14.61;100.00;100902.56;10477961;28;20068;-80
2023/09/01 08:59:15;;;;;;;12.70;6.80;;;;;;;14.59;100.00;100904.25;10422525;28;20045;-78
2023/09/01 09:04:16;;;;;;;12.20;5.47;;;;;;;14.53;100.00;100904.97;10443628;28;20388;-78
2023/09/01 09:09:18;;;;;;;11.25;6.32;;;;;;;14.49;100.00;100912.72;10446210;28;20082;-80
2023/09/01 09:14:19;;;;;;;11.43;6.68;;;;;;;14.47;100.00;100927.56;10445469;28;20072;-78
2023/09/01 09:19:19;;;;;;;7.18;4.60;;;;;;;14.55;100.00;100923.44;10469778;28;20054;-80
2023/09/01 09:24:34;;;;;;;11.45;5.43;;;;;;;14.56;100.00;100924.34;10404759;28;20040;-81
2023/09/01 09:29:41;;;;;;;10.43;4.35;;;;;;;14.46;100.00;100916.16;10429110;28;20033;-78
2023/09/01 09:34:43;;;;;;;6.05;3.72;;;;;;;14.42;100.00;100921.25;10474698;28;20059;-79
2023/09/01 09:39:43;;;;;;;6.93;4.13;;;;;;;14.58;100.00;100920.03;10422545;28;20489;-80
2023/09/01 09:44:44;;;;;;;7.65;4.47;;;;;;;14.58;100.00;100913.00;10432151;28;20127;-81
2023/09/01 09:49:44;;;;;;;9.25;5.53;;;;;;;14.69;100.00;100905.47;10438501;28;20048;-83
2023/09/01 09:54:45;;;;;;;8.25;4.07;;;;;;;14.88;100.00;100901.69;10382282;28;20481;-82
2023/09/01 09:59:51;;;;;;;6.93;4.28;;;;;;;15.08;100.00;100896.13;10431324;28;20056;-79
2023/09/01 10:04:52;;;;;;;12.10;5.15;;;;;;;15.33;100.00;100899.47;10461982;28;20042;-78
2023/09/01 10:09:52;;;;;;;7.68;4.13;;;;;;;15.43;100.00;100898.00;10414425;28;20037;-78
2023/09/01 10:14:54;;;;;;;5.32;3.50;;;;;;;15.59;100.00;100896.66;10438253;28;20055;-78
2023/09/01 10:19:55;;;;;;;7.72;5.05;;;;;;;15.55;100.00;100908.91;10437258;28;20096;-78
2023/09/01 10:25:12;;;;;;;6.38;3.88;;;;;;;15.63;100.00;100904.72;10415069;28;20041;-81
2023/09/01 10:30:26;;;;;;;9.38;5.68;;;;;;;15.88;100.00;100910.69;10438348;28;20056;-79
2023/09/01 10:35:53;;;;;;;11.25;5.43;;;;;;;15.91;100.00;100905.50;10487090;28;20162;-78
2023/09/01 10:40:54;;;;;;;7.63;3.65;;;;;;;16.07;100.00;100898.84;10418729;28;20045;-78
2023/09/01 10:46:19;;;;;;;6.97;3.35;;;;;;;16.53;100.00;100901.75;10412272;28;20037;-78
2023/09/01 10:51:51;;;;;;;5.65;3.38;;;;;;;16.63;100.00;100894.91;10426291;28;20068;-78
2023/09/01 10:57:03;;;;;;;5.25;3.17;;;;;;;16.82;100.00;100883.03;10427513;28;20456;-78
2023/09/01 11:02:21;;;;;;;4.63;2.90;;;;;;;16.97;100.00;100871.91;10408681;28;20045;-78
2023/09/01 11:07:21;;;;;;;4.35;2.72;;;;;;;17.21;100.00;100869.78;10405010;28;20053;-78
2023/09/01 11:12:26;;;;;;;3.65;2.00;;;;;;;17.24;100.00;100862.78;10401623;28;20030;-77
2023/09/01 11:17:38;;;;;;;3.38;1.75;;;;;;;16.95;100.00;100860.38;10423487;28;20029;-78
2023/09/01 11:22:42;;;;;;;3.95;1.70;;;;;;;17.16;100.00;100856.44;10425535;28;20044;-77
2023/09/01 11:27:43;;;;;;;4.55;2.67;;;;;;;17.50;100.00;100843.88;10446067;28;20386;-78
2023/09/01 11:32:44;;;;;;;4.53;1.75;;;;;;;17.94;100.00;100847.28;10414608;28;20080;-79
2023/09/01 11:37:45;;;;;;;3.90;2.17;;;;;;;18.19;100.00;100851.28;10428025;28;20618;-78
2023/09/01 11:42:45;;;;;;;3.08;1.98;;;;;;;18.35;100.00;100849.75;10412797;28;20446;-78
2023/09/01 11:47:50;;;;;;;2.92;1.80;;;;;;;18.40;100.00;100861.31;10416454;28;20049;-78
2023/09/01 11:52:55;;;;;;;2.40;1.48;;;;;;;18.88;100.00;100863.75;10421389;28;20044;-78
2023/09/01 11:57:56;;;;;;;3.17;1.15;;;;;;;18.93;100.00;100864.69;10428790;28;20032;-78
2023/09/01 12:02:56;;;;;;;3.13;1.42;;;;;;;18.89;100.00;100871.75;10431078;28;20049;-78
2023/09/01 12:07:58;;;;;;;1.17;0.80;;;;;;;18.96;100.00;100874.47;10426589;28;20063;-78
2023/09/01 12:13:07;;;;;;;1.92;0.95;;;;;;;18.83;100.00;100887.56;10424366;28;20043;-78
2023/09/01 12:18:26;;;;;;;1.83;1.20;;;;;;;18.79;100.00;100905.16;10450134;28;20477;-79
2023/09/01 12:23:37;;;;;;;2.55;1.45;;;;;;;18.81;100.00;100909.59;10455178;28;20071;-79
2023/09/01 12:28:38;;;;;;;3.38;2.30;;;;;;;18.90;100.00;100923.91;10450416;28;20037;-79
2023/09/01 12:33:39;;;;;;;5.23;2.70;;;;;;;18.66;100.00;100940.31;10424596;28;20075;-78
2023/09/01 12:38:40;;;;;;;5.32;2.10;;;;;;;18.98;100.00;100944.38;10402426;28;20038;-78
2023/09/01 12:43:42;;;;;;;3.17;2.20;;;;;;;19.27;100.00;100941.22;10410226;28;20037;-79
2023/09/01 12:48:42;;;;;;;3.60;2.17;;;;;;;19.35;100.00;100945.75;10420645;28;20048;-78
2023/09/01 12:53:43;;;;;;;4.35;3.20;;;;;;;19.58;100.00;100960.19;10435152;28;20063;-78
2023/09/01 12:58:44;;;;;;;4.65;2.97;;;;;;;19.87;100.00;100965.81;10432258;28;20037;-76
2023/09/01 13:03:44;;;;;;;5.50;3.53;;;;;;;20.05;100.00;100982.84;10426848;28;20033;-78
2023/09/01 13:08:45;;;;;;;5.00;3.47;;;;;;;19.94;100.00;100993.38;10423776;28;20179;-77
2023/09/01 13:13:45;;;;;;;7.07;4.40;;;;;;;20.33;100.00;100997.31;10404956;28;20397;-78
2023/09/01 13:18:46;;;;;;;5.97;4.00;;;;;;;21.09;100.00;101003.22;10377119;28;20085;-77
2023/09/01 13:23:47;;;;;;;5.60;4.50;;;;;;;21.50;100.00;101000.78;10362481;28;20056;-78
2023/09/01 13:28:48;;;;;;;5.63;4.50;;;;;;;22.57;100.00;100994.00;10364070;28;20038;-78
2023/09/01 13:33:48;;;;;;;4.43;3.30;;;;;;;21.84;100.00;100991.19;10395883;28;20033;-78
2023/09/01 13:38:49;;;;;;;7.30;4.43;;;;;;;23.76;100.00;100992.81;10424407;28;20071;-77
2023/09/01 13:43:50;;;;;;;5.43;4.00;;;;;;;24.96;100.00;101001.78;10432343;28;20037;-77
2023/09/01 13:48:53;;;;;;;2.63;2.23;;;;;;;26.44;100.00;101028.56;10441840;28;20055;-78
2023/09/01 13:53:54;;;;;;;3.78;2.72;;;;;;;24.06;100.00;101032.78;10477113;28;20048;-78
2023/09/01 13:58:55;;;;;;;5.95;4.03;;;;;;;22.17;100.00;101025.03;10458460;28;20385;-79
2023/09/01 14:03:56;;;;;;;6.22;3.55;;;;;;;24.37;100.00;101032.59;10459080;28;20041;-78
2023/09/01 14:08:58;;;;;;;4.03;2.00;;;;;;;25.06;100.00;101031.16;10441677;28;20386;-78
2023/09/01 14:13:59;;;;;;;3.55;2.63;;;;;;;23.69;100.00;101028.47;10464704;28;20091;-78
2023/09/01 14:18:59;;;;;;;6.27;2.20;;;;;;;21.95;100.00;101041.84;10440959;28;20366;-78
2023/09/01 14:24:00;;;;;;;4.27;3.07;;;;;;;21.05;100.00;101054.66;10442837;28;20377;-79
2023/09/01 14:29:00;;;;;;;3.63;2.50;;;;;;;20.21;100.00;101064.50;10425218;28;20130;-79
2023/09/01 14:34:01;;;;;;;3.50;2.10;;;;;;;19.68;100.00;101065.63;10444513;28;20074;-80
2023/09/01 14:39:01;;;;;;;3.67;2.20;;;;;;;19.52;100.00;101070.72;10444264;28;20052;-79
2023/09/01 14:44:02;;;;;;;3.23;2.20;;;;;;;20.23;100.00;101069.84;10437638;28;20110;-78
2023/09/01 14:49:02;;;;;;;3.67;1.87;;;;;;;22.25;100.00;101053.47;10440101;28;20052;-78
2023/09/01 14:54:05;;;;;;;2.67;1.93;;;;;;;21.98;100.00;101057.84;10416276;28;20107;-78
2023/09/01 14:59:06;;;;;;;4.00;2.03;;;;;;;21.08;100.00;101075.97;10426653;28;20393;-78
2023/09/01 15:04:06;;;;;;;4.60;2.30;;;;;;;20.12;100.00;101080.34;10442551;28;20129;-78
2023/09/01 15:09:07;;;;;;;4.83;3.33;;;;;;;19.57;100.00;101081.38;10439235;28;20044;-78
2023/09/01 15:14:07;;;;;;;7.05;4.03;;;;;;;19.27;100.00;101097.75;10455682;28;20079;-78
2023/09/01 15:19:08;;;;;;;2.90;2.30;;;;;;;19.86;100.00;101086.19;10443888;28;20038;-78
2023/09/01 15:24:08;;;;;;;2.65;1.48;;;;;;;21.73;100.00;101069.28;10437128;28;20048;-78
2023/09/01 15:29:09;;;;;;;4.23;1.83;;;;;;;23.09;100.00;101068.69;10410577;28;20404;-78
2023/09/01 15:34:10;;;;;;;2.53;1.73;;;;;;;23.36;100.00;101070.44;10459478;28;20114;-79
2023/09/01 15:39:11;;;;;;;2.05;1.30;;;;;;;23.42;100.00;101070.41;10436456;28;20071;-79
2023/09/01 15:44:12;;;;;;;4.40;2.23;;;;;;;22.87;100.00;101068.69;10470158;28;20182;-78
2023/09/01 15:49:13;;;;;;;4.78;2.92;;;;;;;22.46;100.00;101082.88;10408474;28;20500;-78
2023/09/01 15:54:14;;;;;;;3.00;1.87;;;;;;;21.49;100.00;101073.56;10406435;28;20045;-78
2023/09/01 15:59:14;;;;;;;1.93;1.33;;;;;;;20.92;100.00;101074.06;10407492;28;20117;-78
2023/09/01 16:04:15;;;;;;;3.37;1.93;;;;;;;20.38;100.00;101090.34;10406918;28;20036;-77
2023/09/01 16:09:15;;;;;;;3.27;2.33;;;;;;;19.75;100.00;101086.06;10421755;28;20033;-77
2023/09/01 16:14:16;;;;;;;2.73;1.60;;;;;;;19.47;100.00;101087.44;10422845;28;20420;-77
2023/09/01 16:19:18;;;;;;;2.77;1.40;;;;;;;19.29;100.00;101088.94;10464100;28;20043;-78
2023/09/01 16:24:18;;;;;;;5.75;1.40;;;;;;;18.98;100.00;101093.75;10449894;28;20025;-77
2023/09/01 16:29:19;;;;;;;3.93;1.27;;;;;;;18.76;100.00;101093.34;10446851;28;20614;-78
2023/09/01 16:34:19;;;;;;;3.03;1.50;;;;;;;18.49;100.00;101099.06;10447241;28;20079;-78
2023/09/01 16:39:20;;;;;;;5.28;2.65;;;;;;;18.35;100.00;101096.13;10480622;28;20427;-78
2023/09/01 16:44:27;;;;;;;2.15;1.17;;;;;;;18.21;100.00;101114.44;10431255;28;20049;-77
2023/09/01 16:49:28;;;;;;;3.75;1.70;;;;;;;18.10;100.00;101121.25;10429456;28;20065;-78
2023/09/01 16:54:29;;;;;;;3.75;1.60;;;;;;;17.86;100.00;101118.09;10447470;28;20048;-78
2023/09/01 16:59:29;;;;;;;3.50;1.52;;;;;;;17.71;100.00;101113.34;10447650;28;20041;-77
2023/09/01 17:04:31;;;;;;;2.97;1.30;;;;;;;17.49;100.00;101119.91;10448734;28;20053;-77
2023/09/01 17:09:32;;;;;;;3.80;1.38;;;;;;;17.22;100.00;101104.28;10443985;28;20565;-77
2023/09/01 17:14:32;;;;;;;5.93;2.50;;;;;;;17.07;100.00;101120.66;10444918;28;20044;-78
2023/09/01 17:19:33;;;;;;;4.47;2.28;;;;;;;16.93;100.00;101123.81;10445379;28;20087;-78
2023/09/01 17:24:33;;;;;;;3.80;1.80;;;;;;;16.75;100.00;101129.53;10447381;28;20037;-77
2023/09/01 17:29:35;;;;;;;8.43;1.95;;;;;;;16.59;100.00;101144.06;10444344;28;20025;-77
2023/09/01 17:34:36;;;;;;;;;;;;;;;16.57;100.00;101149.31;10444790;28;20047;-77
2023/09/01 17:39:38;;;;;;;3.80;2.15;;;;;;;16.57;100.00;101151.06;10477893;28;20406;-78
2023/09/01 17:44:39;;;;;;;7.10;2.33;;;;;;;16.53;100.00;101158.00;10442976;28;20152;-78
2023/09/01 17:49:40;;;;;;;13.90;2.63;;;;;;;16.51;100.00;101165.00;10444546;28;20044;-78
2023/09/01 17:54:40;;;;;;;4.50;2.83;;;;;;;16.50;100.00;101162.31;10408585;28;20723;-77
2023/09/01 17:59:41;;;;;;;22.23;3.40;;;;;;;16.39;100.00;101173.47;10402375;28;20041;-77
2023/09/01 18:04:41;;;;;;;4.10;2.40;;;;;;;16.31;100.00;101172.34;10405370;28;20057;-78
2023/09/01 18:09:42;;;;;;;5.28;2.42;;;;;;;16.23;100.00;101187.97;10402678;28;20087;-78
2023/09/01 18:14:42;;;;;;;5.30;3.33;;;;;;;16.15;100.00;101189.50;10417472;28;20508;-77
2023/09/01 18:19:43;;;;;;;6.75;3.13;;;;;;;15.96;100.00;101191.59;10402834;28;20033;-78
2023/09/01 18:24:43;;;;;;;5.25;3.45;;;;;;;15.79;100.00;101198.03;10418603;28;20495;-77
2023/09/01 18:29:44;;;;;;;7.68;3.58;;;;;;;15.61;100.00;101206.25;10417601;28;20029;-77
2023/09/01 18:34:44;;;;;;;12.02;3.83;;;;;;;15.48;100.00;101215.53;10402154;28;20051;-77
2023/09/01 18:39:46;;;;;;;5.30;2.70;;;;;;;15.34;100.00;101220.31;10400493;28;20103;-78
2023/09/01 18:44:47;;;;;;;20.77;5.18;;;;;;;15.30;100.00;101219.34;10417933;28;20087;-77
2023/09/01 18:49:49;;;;;;;5.82;4.25;;;;;;;15.20;100.00;101222.50;10400124;28;20040;-77
2023/09/01 18:54:50;;;;;;;25.30;6.40;;;;;;;15.11;100.00;101215.16;10455411;28;20056;-77
2023/09/01 18:59:57;;;;;;;37.95;8.85;;;;;;;15.02;100.00;101217.47;10443174;28;20488;-77
2023/09/01 19:04:59;;;;;;;7.45;4.13;;;;;;;14.97;100.00;101222.59;10441634;28;20040;-76
2023/09/01 19:09:59;;;;;;;14.23;6.17;;;;;;;14.89;100.00;101231.97;10440938;28;20037;-77
2023/09/01 19:15:00;;;;;;;12.07;6.10;;;;;;;14.87;100.00;101242.44;10441307;28;20300;-77
2023/09/01 19:20:03;;;;;;;37.97;6.38;;;;;;;14.77;100.00;101258.75;10442212;28;20037;-76
2023/09/01 19:25:07;;;;;;;13.82;6.53;;;;;;;14.77;100.00;101264.94;10399077;28;20407;-77
2023/09/01 19:30:08;;;;;;;9.93;4.82;;;;;;;14.74;100.00;101275.38;10405455;28;20503;-77
2023/09/01 19:35:11;;;;;;;7.30;5.30;;;;;;;14.80;100.00;101285.22;10443036;28;20037;-77
2023/09/01 19:40:11;;;;;;;10.88;5.75;;;;;;;14.86;100.00;101279.28;10440338;28;20043;-77
2023/09/01 19:45:27;;;;;;;9.65;6.53;;;;;;;14.92;100.00;101279.53;10440312;28;20040;-77
2023/09/01 19:50:28;;;;;;;13.63;6.32;;;;;;;15.02;100.00;101276.38;10440896;28;20515;-77
2023/09/01 19:55:29;;;;;;;16.10;6.32;;;;;;;15.10;100.00;101269.63;10404704;28;20052;-77
2023/09/01 20:00:30;;;;;;;9.57;6.05;;;;;;;15.07;100.00;101273.88;10431921;28;20044;-77
2023/09/01 20:05:30;;;;;;;6.80;5.10;;;;;;;15.08;100.00;101286.22;10416475;28;20030;-77
2023/09/01 20:10:33;;;;;;;13.25;5.93;;;;;;;15.08;100.00;101291.50;10420506;28;20037;-77
2023/09/01 20:15:39;;;;;;;14.07;6.53;;;;;;;15.13;100.00;101284.66;10423362;28;20492;-76
2023/09/01 20:20:40;;;;;;;11.15;6.32;;;;;;;15.12;100.00;101278.50;10437560;28;20141;-76
2023/09/01 20:25:42;;;;;;;10.43;6.53;;;;;;;15.05;100.00;101287.03;10419803;28;20188;-77
2023/09/01 20:30:42;;;;;;;;;;;;;;;15.05;100.00;101289.66;10424061;28;20084;-77
2023/09/01 20:35:43;;;;;;;11.88;6.32;;;;;;;15.06;100.00;101299.38;10406771;28;19971;-78
2023/09/01 20:40:43;;;;;;;13.82;7.03;;;;;;;15.07;100.00;101301.16;10407040;28;20125;-77
2023/09/01 20:45:44;;;;;;;11.45;7.05;;;;;;;15.05;100.00;101302.84;10405818;28;20048;-77
2023/09/01 20:50:45;;;;;;;9.07;6.10;;;;;;;15.06;100.00;101309.00;10420605;28;20049;-77
2023/09/01 20:55:45;;;;;;;11.80;6.60;;;;;;;15.08;100.00;101308.22;10406697;28;20065;-77
2023/09/01 21:00:46;;;;;;;8.60;6.13;;;;;;;15.07;100.00;101309.06;10409361;28;20049;-77
2023/09/01 21:05:46;;;;;;;9.65;6.50;;;;;;;15.09;100.00;101306.47;10445981;28;20049;-77
2023/09/01 21:10:47;;;;;;;10.93;6.25;;;;;;;15.04;100.00;101305.41;10445688;28;20029;-78
2023/09/01 21:15:50;;;;;;;9.27;7.05;;;;;;;15.00;100.00;101312.31;10446800;28;20492;-77
2023/09/01 21:20:50;;;;;;;14.77;7.15;;;;;;;14.91;100.00;101312.88;10445104;28;20037;-77
2023/09/01 21:25:51;;;;;;;13.80;7.53;;;;;;;14.84;100.00;101308.22;10444728;28;20061;-78
2023/09/01 21:30:51;;;;;;;13.98;6.80;;;;;;;14.83;100.00;101307.31;10445514;28;20029;-77
2023/09/01 21:35:52;;;;;;;17.38;8.30;;;;;;;14.73;100.00;101309.53;10411306;28;20041;-78
2023/09/01 21:40:52;;;;;;;12.93;7.03;;;;;;;14.58;100.00;101308.09;10445725;28;20033;-77
2023/09/01 21:45:53;;;;;;;28.13;8.40;;;;;;;14.50;100.00;101299.00;10445886;28;20040;-77
2023/09/01 21:50:53;;;;;;;10.35;6.53;;;;;;;14.41;100.00;101306.53;10445038;28;20049;-77
2023/09/01 21:55:54;;;;;;;14.52;8.40;;;;;;;14.32;100.00;101307.97;10408008;28;20128;-77
2023/09/01 22:00:54;;;;;;;14.00;7.80;;;;;;;14.24;100.00;101306.78;10404514;28;20120;-77
2023/09/01 22:05:57;;;;;;;14.05;7.55;;;;;;;14.11;100.00;101308.03;10408093;28;20056;-77
2023/09/01 22:10:58;;;;;;;13.38;7.93;;;;;;;14.05;100.00;101323.56;10443726;28;20033;-77
2023/09/01 22:15:58;;;;;;;12.27;8.15;;;;;;;13.97;100.00;101328.50;10442488;28;20045;-77
2023/09/01 22:20:59;;;;;;;14.73;9.07;;;;;;;13.97;100.00;101333.78;10439183;28;20366;-78
2023/09/01 22:26:00;;;;;;;66.65;13.07;;;;;;;13.88;100.00;101338.66;10442681;28;20158;-77
2023/09/01 22:31:00;;;;;;;26.27;8.60;;;;;;;13.77;100.00;101338.22;10427024;28;20481;-78
2023/09/01 22:36:01;;;;;;;12.50;8.25;;;;;;;13.61;100.00;101339.28;10420941;28;20045;-77
2023/09/01 22:41:02;;;;;;;14.63;8.68;;;;;;;13.57;100.00;101355.75;10402352;28;20122;-78